Aviation Digital Data Service (ADDS)

Output produced by TAFs form (1009 UTC 18 January 2017)
found at http://aviationweather.gov/adds/tafs/
 
KHOB 180520Z 1806/1906 VRB03KT 6SM BR OVC025 
     TEMPO 1806/1810 4SM BR OVC008 
     FM181000 VRB03KT 5SM BR OVC007 
     TEMPO 1811/1815 2SM BR OVC003 AMD NOT SKED